Time;durP1;ratioP1;P1;durP2;ratioP2;P2;SDS_P1;SDS_P2;PMS_P1;PMS_P2;Temp;Humidity;BMP_temperature;BMP_pressure;BME280_temperature;BME280_humidity;BME280_pressure;Samples;Min_cycle;Max_cycle;Signal;HPM_P1;HPM_P2
2022/10/10 00:00:38;;;;;;;;;21.33;17.00;;;;;14.30;60.55;101028.41;5016965;28;45479;-42
2022/10/10 00:03:04;;;;;;;;;18.67;15.67;;;;;14.30;60.27;101023.06;5017315;28;45401;-43
2022/10/10 00:05:29;;;;;;;;;21.67;17.67;;;;;14.22;60.50;101014.00;5017302;28;45296;-44
2022/10/10 00:07:55;;;;;;;;;23.33;21.33;;;;;14.24;60.62;101027.19;5017462;28;45456;-44
2022/10/10 00:10:20;;;;;;;;;20.33;19.33;;;;;14.24;60.60;101032.53;5017040;28;45313;-48
2022/10/10 00:12:47;;;;;;;;;22.33;18.33;;;;;14.24;60.90;101029.88;5017187;28;45262;-44
2022/10/10 00:15:14;;;;;;;;;14.67;10.67;;;;;14.22;60.85;101039.91;5017314;28;45367;-45
2022/10/10 00:17:42;;;;;;;;;19.67;17.33;;;;;14.20;61.19;101031.22;5017358;28;45562;-49
2022/10/10 00:20:11;;;;;;;;;19.33;18.00;;;;;14.15;60.75;101028.19;5017108;28;45274;-45
2022/10/10 00:22:37;;;;;;;;;19.00;18.00;;;;;14.12;60.95;101026.69;5016998;28;45355;-45
2022/10/10 00:25:03;;;;;;;;;25.67;17.67;;;;;14.12;61.15;101024.00;4999205;28;45387;-44
2022/10/10 00:27:29;;;;;;;;;19.00;17.00;;;;;14.08;60.86;101017.31;5017211;28;45265;-41
2022/10/10 00:29:54;;;;;;;;;19.33;18.00;;;;;14.08;60.99;101019.16;5016785;28;45432;-42
2022/10/10 00:32:19;;;;;;;;;16.33;15.00;;;;;14.03;60.83;101018.78;5017081;28;45270;-42
2022/10/10 00:34:45;;;;;;;;;27.00;19.33;;;;;13.96;61.18;101011.41;5017058;28;45365;-42
2022/10/10 00:37:10;;;;;;;;;22.67;17.00;;;;;13.95;61.44;101015.09;5017161;28;45219;-42
2022/10/10 00:39:35;;;;;;;;;21.00;17.67;;;;;13.93;61.73;101019.75;5016508;28;45756;-42
2022/10/10 00:42:01;;;;;;;;;20.33;17.67;;;;;13.94;61.78;101020.59;5016997;28;45334;-44
2022/10/10 00:44:27;;;;;;;;;26.67;19.67;;;;;13.92;61.87;101022.59;5017017;28;45340;-41
2022/10/10 00:46:52;;;;;;;;;21.33;16.33;;;;;13.85;61.73;101019.72;5017201;28;45443;-44
2022/10/10 00:49:21;;;;;;;;;20.67;19.33;;;;;13.89;61.76;101017.56;5016657;28;46050;-42
2022/10/10 00:51:51;;;;;;;;;23.67;19.00;;;;;13.87;62.00;101025.75;5016768;28;45439;-42
2022/10/10 00:54:20;;;;;;;;;17.00;15.00;;;;;13.87;61.84;101024.94;5016598;28;45387;-43
2022/10/10 00:56:48;;;;;;;;;21.33;18.33;;;;;13.86;61.74;101016.06;5016719;28;45218;-43
2022/10/10 00:59:15;;;;;;;;;20.33;13.67;;;;;13.86;61.91;101016.06;5016217;28;45436;-41
2022/10/10 01:01:41;;;;;;;;;15.67;14.00;;;;;13.83;61.89;101013.72;5017604;28;45459;-43
2022/10/10 01:04:35;;;;;;;;;25.33;17.00;;;;;13.82;61.89;101009.38;5020216;28;45221;-45
2022/10/10 01:07:07;;;;;;;;;16.33;15.00;;;;;13.77;62.45;101018.84;5020098;28;45313;-43
2022/10/10 01:09:36;;;;;;;;;17.33;15.00;;;;;13.72;62.68;101008.66;5019886;28;46117;-43
2022/10/10 01:12:07;;;;;;;;;18.00;16.00;;;;;13.71;62.01;101020.34;5019892;28;45386;-42
2022/10/10 01:15:02;;;;;;;;;20.33;16.00;;;;;13.66;62.02;101007.47;5020127;28;45437;-43
2022/10/10 01:17:39;;;;;;;;;17.00;15.00;;;;;13.62;62.41;101006.09;5018714;28;45427;-46
2022/10/10 01:20:38;;;;;;;;;20.67;18.00;;;;;13.57;62.61;101003.09;5019824;28;46127;-48
2022/10/10 01:23:22;;;;;;;;;20.67;17.67;;;;;13.52;63.09;101007.22;5019897;28;45367;-43
2022/10/10 01:25:57;;;;;;;;;27.00;17.00;;;;;13.48;63.54;101004.88;5019697;28;45281;-46
2022/10/10 01:29:00;;;;;;;;;14.33;14.00;;;;;13.46;63.30;101008.69;5019891;28;45459;-45
2022/10/10 01:31:28;;;;;;;;;21.00;17.00;;;;;13.42;62.71;101008.16;5019382;28;46412;-42
2022/10/10 01:34:12;;;;;;;;;23.67;18.67;;;;;13.30;63.31;100993.41;5019661;28;45306;-43
2022/10/10 01:36:47;;;;;;;;;21.67;15.33;;;;;13.38;63.18;101006.81;5019691;28;45528;-44
2022/10/10 01:39:22;;;;;;;;;16.00;14.33;;;;;13.36;63.52;101000.81;5019938;28;45363;-48
2022/10/10 01:42:00;;;;;;;;;19.33;15.00;;;;;13.37;63.23;101006.97;5019214;28;46387;-41
2022/10/10 01:44:25;;;;;;;;;19.00;16.67;;;;;13.35;63.70;100995.59;5019532;28;45365;-45
2022/10/10 01:46:51;;;;;;;;;22.33;16.67;;;;;13.36;63.30;100994.63;5019351;28;45609;-48
2022/10/10 01:49:17;;;;;;;;;20.33;15.67;;;;;13.31;63.48;100992.41;5019819;28;45197;-43
2022/10/10 01:52:00;;;;;;;;;17.67;17.00;;;;;13.34;62.64;101004.63;5019248;28;47182;-43
2022/10/10 01:54:51;;;;;;;;;21.00;17.00;;;;;13.29;63.09;100999.75;5019203;28;45410;-41
2022/10/10 01:57:41;;;;;;;;;17.67;14.67;;;;;13.31;63.71;101002.25;5019105;28;45438;-43
2022/10/10 02:00:08;;;;;;;;;24.33;16.33;;;;;13.29;63.73;101004.25;5019394;28;45306;-41
2022/10/10 02:03:01;;;;;;;;;15.33;14.67;;;;;13.26;63.57;100999.22;5018834;28;46193;-48
2022/10/10 02:05:41;;;;;;;;;15.00;10.33;;;;;13.25;63.25;100992.22;5019192;28;45432;-43
2022/10/10 02:08:11;;;;;;;;;18.67;15.00;;;;;13.18;64.17;100994.63;5019254;28;45464;-43
2022/10/10 02:10:43;;;;;;;;;16.67;16.67;;;;;13.19;64.36;100999.00;5019137;28;45540;-43
2022/10/10 02:13:10;;;;;;;;;16.67;14.00;;;;;13.16;64.24;100996.63;5018318;28;47141;-44
2022/10/10 02:15:43;;;;;;;;;20.00;16.33;;;;;13.11;63.44;100990.94;5018833;28;45271;-42
2022/10/10 02:18:10;;;;;;;;;19.00;16.33;;;;;13.11;64.55;101001.63;5019164;28;45250;-42
2022/10/10 02:20:36;;;;;;;;;22.33;20.33;;;;;13.06;64.41;100993.22;5019078;28;45214;-50
2022/10/10 02:23:04;;;;;;;;;17.67;17.33;;;;;13.02;65.43;100995.38;5018784;28;46271;-43
2022/10/10 02:25:35;;;;;;;;;24.33;18.67;;;;;13.01;64.95;100999.03;5018853;28;45490;-42
2022/10/10 02:28:15;;;;;;;;;19.33;15.00;;;;;13.00;64.96;101002.69;5019011;28;45234;-44
2022/10/10 02:30:45;;;;;;;;;19.00;15.00;;;;;12.91;65.49;100983.09;5019054;28;45336;-47
2022/10/10 02:33:14;;;;;;;;;18.00;14.33;;;;;13.06;65.03;100999.41;5018835;28;46174;-46
2022/10/10 02:35:43;;;;;;;;;20.00;17.00;;;;;13.14;64.42;100995.94;5018576;28;45452;-47
2022/10/10 02:38:13;;;;;;;;;18.00;15.33;;;;;13.18;64.52;100998.13;5018943;28;45415;-44
2022/10/10 02:40:40;;;;;;;;;15.00;12.67;;;;;13.08;64.54;100973.38;5018988;28;45364;-48
2022/10/10 02:43:07;;;;;;;;;18.00;17.00;;;;;13.14;64.78;100982.59;5018434;28;45499;-47
2022/10/10 02:45:33;;;;;;;;;18.00;14.00;;;;;13.22;64.74;100994.19;5000791;28;45367;-46
2022/10/10 02:47:59;;;;;;;;;18.00;13.00;;;;;13.21;64.71;100991.66;5018658;28;45250;-45
2022/10/10 02:50:26;;;;;;;;;20.67;19.00;;;;;13.21;64.30;101003.16;5018902;28;45419;-48
2022/10/10 02:52:51;;;;;;;;;16.67;15.67;;;;;13.20;63.86;100998.00;5018194;28;46409;-49
2022/10/10 02:55:16;;;;;;;;;16.00;15.33;;;;;13.17;64.74;100996.47;5018465;28;45370;-44
2022/10/10 02:57:41;;;;;;;;;22.67;15.00;;;;;13.17;64.82;100996.47;5018711;28;45364;-44
2022/10/10 03:00:07;;;;;;;;;21.33;16.67;;;;;13.17;64.88;100993.78;5018572;28;45424;-45
2022/10/10 03:02:33;;;;;;;;;11.67;10.00;;;;;13.15;65.02;100998.47;5018176;28;45416;-48
2022/10/10 03:04:58;;;;;;;;;15.67;14.00;;;;;13.16;64.94;101000.13;5000629;28;45356;-42
2022/10/10 03:07:24;;;;;;;;;20.67;15.33;;;;;13.16;64.74;101005.47;5018453;28;45263;-48
2022/10/10 03:09:50;;;;;;;;;20.33;15.67;;;;;13.15;64.45;101001.16;5018604;28;45344;-48
2022/10/10 03:12:16;;;;;;;;;20.67;14.67;;;;;13.09;64.04;100987.56;5017744;28;46410;-46
2022/10/10 03:14:42;;;;;;;;;21.33;18.67;;;;;13.16;64.47;100996.63;5018078;28;45402;-48
2022/10/10 03:17:08;;;;;;;;;15.00;11.00;;;;;13.18;65.16;100998.13;5018192;28;45380;-44
2022/10/10 03:19:33;;;;;;;;;16.33;16.33;;;;;13.18;65.28;101000.81;5018444;28;45510;-47
2022/10/10 03:21:58;;;;;;;;;18.00;15.67;;;;;13.16;64.60;100994.78;5017838;28;46069;-47
2022/10/10 03:24:24;;;;;;;;;18.67;14.67;;;;;13.13;65.18;100989.75;5017030;28;45412;-44
2022/10/10 03:26:49;;;;;;;;;15.33;14.33;;;;;13.09;65.43;100987.56;5017909;28;45404;-42
2022/10/10 03:29:14;;;;;;;;;11.00;8.33;;;;;13.09;65.13;100998.25;5018450;28;45302;-43
2022/10/10 03:31:40;;;;;;;;;19.33;16.00;;;;;13.03;65.59;100988.22;5017615;28;45978;-43
2022/10/10 03:34:05;;;;;;;;;23.33;17.67;;;;;13.02;65.72;100986.50;5017788;28;45818;-45
2022/10/10 03:36:30;;;;;;;;;19.33;15.00;;;;;13.01;65.81;100993.69;5017815;28;45329;-43
2022/10/10 03:38:56;;;;;;;;;12.67;10.33;;;;;13.00;65.67;100986.69;5018090;28;45321;-44
2022/10/10 03:41:21;;;;;;;;;19.33;14.67;;;;;13.00;65.12;100994.69;5017669;28;45404;-44
2022/10/10 03:43:47;;;;;;;;;17.33;12.33;;;;;12.86;66.00;100971.22;5017245;28;45544;-49
2022/10/10 03:46:12;;;;;;;;;19.33;13.67;;;;;12.96;65.89;100982.63;5017775;28;45294;-43
2022/10/10 03:48:37;;;;;;;;;18.00;12.33;;;;;12.93;66.26;100989.13;5017975;28;45675;-48
2022/10/10 03:51:03;;;;;;;;;16.33;13.00;;;;;12.96;65.48;100979.97;5017394;28;46237;-43
2022/10/10 03:53:28;;;;;;;;;17.00;13.00;;;;;12.99;65.89;100985.00;5017471;28;45417;-47
2022/10/10 03:55:54;;;;;;;;;15.00;14.00;;;;;13.06;65.68;100995.88;5017581;28;45410;-44
2022/10/10 03:58:20;;;;;;;;;16.00;14.00;;;;;13.10;66.25;100991.91;5017688;28;45564;-46
2022/10/10 04:00:53;;;;;;;;;14.33;13.67;;;;;13.13;65.35;100992.44;5017384;28;46052;-43
2022/10/10 04:03:18;;;;;;;;;16.00;15.00;;;;;13.15;65.50;100989.63;5017421;28;45413;-49
2022/10/10 04:05:44;;;;;;;;;15.00;13.67;;;;;13.17;66.10;101003.66;5017551;28;45360;-47
2022/10/10 04:08:09;;;;;;;;;19.67;13.33;;;;;13.17;65.90;101000.97;5017491;28;45419;-49
2022/10/10 04:10:34;;;;;;;;;12.33;10.00;;;;;13.20;65.62;100998.84;5017342;28;45348;-48
2022/10/10 04:13:00;;;;;;;;;22.33;13.67;;;;;13.25;65.73;101000.22;5016920;28;45344;-48
2022/10/10 04:15:25;;;;;;;;;17.00;15.00;;;;;13.28;65.86;100991.91;5017512;28;45308;-42
2022/10/10 04:17:51;;;;;;;;;14.33;12.33;;;;;13.27;65.59;100985.69;5017880;28;45318;-49
2022/10/10 04:20:17;;;;;;;;;16.00;12.67;;;;;13.33;65.37;100993.09;5017177;28;46074;-46
2022/10/10 04:22:43;;;;;;;;;15.00;13.00;;;;;13.32;65.73;100982.56;5017147;28;45317;-48
2022/10/10 04:25:10;;;;;;;;;15.00;13.00;;;;;13.35;65.99;100988.41;5017394;28;45327;-47
2022/10/10 04:27:35;;;;;;;;;15.00;12.67;;;;;13.35;65.14;100990.25;5017151;28;45451;-46
2022/10/10 04:30:01;;;;;;;;;15.33;13.00;;;;;13.31;66.03;100983.56;5016949;28;47149;-48
2022/10/10 04:32:26;;;;;;;;;13.00;13.00;;;;;13.30;65.48;100988.06;5016969;28;45348;-45
2022/10/10 04:34:52;;;;;;;;;15.00;13.33;;;;;13.27;65.80;100988.38;5017209;28;45489;-47
2022/10/10 04:37:17;;;;;;;;;10.00;10.00;;;;;13.26;66.02;100983.19;5017096;28;45492;-43
2022/10/10 04:39:43;;;;;;;;;15.33;12.00;;;;;13.26;66.25;100986.69;5016897;28;45411;-46
2022/10/10 04:42:08;;;;;;;;;15.33;15.33;;;;;13.29;65.44;100983.72;5016992;28;45280;-49
2022/10/10 04:44:33;;;;;;;;;16.00;14.00;;;;;13.30;66.00;100989.91;5017074;28;45341;-46
2022/10/10 04:46:59;;;;;;;;;16.67;13.00;;;;;13.28;66.67;100987.41;5016750;28;45450;-46
2022/10/10 04:49:24;;;;;;;;;17.67;14.00;;;;;13.25;66.46;100982.34;5016824;28;45404;-42
2022/10/10 04:51:50;;;;;;;;;18.00;14.00;;;;;13.23;66.59;100989.69;5016486;28;45517;-46
2022/10/10 04:54:15;;;;;;;;;16.67;13.00;;;;;13.21;66.58;100991.66;5016573;28;45678;-45
2022/10/10 04:56:41;;;;;;;;;15.33;13.00;;;;;13.17;66.96;100992.97;5017011;28;45542;-44
2022/10/10 04:59:07;;;;;;;;;16.33;15.67;;;;;13.16;67.03;100991.28;5016447;28;46942;-47
2022/10/10 05:01:33;;;;;;;;;18.50;13.00;;;;;13.10;67.33;100978.56;5016520;28;45359;-46
2022/10/10 05:03:58;;;;;;;;;20.00;15.00;;;;;13.12;67.39;100968.56;5016524;28;45274;-49
2022/10/10 05:06:24;;;;;;;;;15.67;14.00;;;;;13.11;68.01;100981.09;4999034;28;45401;-50
2022/10/10 05:08:49;;;;;;;;;12.00;11.67;;;;;13.06;67.78;100967.38;5016611;28;45306;-50
2022/10/10 05:11:14;;;;;;;;;15.00;13.00;;;;;13.06;68.16;100977.19;5016595;28;45461;-46
2022/10/10 05:13:40;;;;;;;;;12.33;10.00;;;;;13.01;68.56;100971.50;5016641;28;45213;-49
2022/10/10 05:16:05;;;;;;;;;15.33;12.00;;;;;12.98;68.44;100970.00;5016931;28;45282;-46
2022/10/10 05:18:30;;;;;;;;;17.00;13.00;;;;;12.94;68.46;100973.97;5016814;28;45290;-48
2022/10/10 05:20:56;;;;;;;;;21.00;16.33;;;;;12.92;68.98;100978.59;5016362;28;45213;-47
2022/10/10 05:23:21;;;;;;;;;14.67;14.00;;;;;12.90;69.09;100988.63;5016625;28;45335;-47
2022/10/10 05:25:48;;;;;;;;;22.00;15.00;;;;;12.89;68.82;100987.78;5016832;28;45299;-45
2022/10/10 05:28:13;;;;;;;;;12.00;12.00;;;;;12.90;69.13;100980.59;5016268;28;45489;-42
2022/10/10 05:30:39;;;;;;;;;10.67;10.33;;;;;12.89;69.32;100973.56;5016335;28;45359;-42
2022/10/10 05:33:04;;;;;;;;;15.33;11.33;;;;;12.89;68.80;100986.91;5016576;28;45956;-44
2022/10/10 05:35:30;;;;;;;;;12.67;11.33;;;;;12.84;68.92;100989.22;5016586;28;45334;-44
2022/10/10 05:37:55;;;;;;;;;13.33;11.33;;;;;12.79;69.14;100979.00;5016211;28;46188;-47
2022/10/10 05:40:22;;;;;;;;;11.33;11.33;;;;;12.83;69.26;100987.56;5016242;28;45431;-50
2022/10/10 05:42:47;;;;;;;;;16.67;12.67;;;;;12.78;68.89;100989.84;5016321;28;45429;-49
2022/10/10 05:45:12;;;;;;;;;19.33;14.00;;;;;12.80;69.53;100983.34;5016236;28;45461;-44
2022/10/10 05:47:38;;;;;;;;;20.00;14.00;;;;;12.81;69.35;100979.72;5017005;28;45385;-45
2022/10/10 05:50:03;;;;;;;;;13.67;13.33;;;;;12.86;69.34;100987.25;5019636;28;45221;-45
2022/10/10 05:52:29;;;;;;;;;14.00;12.33;;;;;12.90;69.39;100981.44;5019355;28;45207;-42
2022/10/10 05:54:55;;;;;;;;;18.33;15.33;;;;;12.88;69.01;100980.75;5019729;28;45484;-43
2022/10/10 05:57:20;;;;;;;;;11.67;10.00;;;;;12.89;69.04;100974.44;5019314;28;45222;-44
2022/10/10 05:59:45;;;;;;;;;10.00;10.00;;;;;12.85;69.55;100973.06;5019481;28;45498;-45
2022/10/10 06:02:13;;;;;;;;;21.00;14.33;;;;;12.86;69.71;100977.41;5019498;28;45239;-43
2022/10/10 06:04:38;;;;;;;;;16.33;12.00;;;;;12.89;69.17;100979.78;5019457;28;45566;-44
2022/10/10 06:07:04;;;;;;;;;17.00;13.33;;;;;12.88;68.81;100974.56;5018903;28;47229;-41
2022/10/10 06:09:30;;;;;;;;;16.67;14.00;;;;;12.87;69.83;100979.06;5019034;28;45308;-47
2022/10/10 06:11:55;;;;;;;;;13.33;12.00;;;;;12.90;69.61;100983.28;5019284;28;45738;-48
2022/10/10 06:14:20;;;;;;;;;12.00;10.67;;;;;12.88;69.70;100969.22;5019157;28;45464;-50
2022/10/10 06:16:46;;;;;;;;;20.33;15.00;;;;;12.90;69.76;100980.59;5018375;28;45288;-42
2022/10/10 06:19:11;;;;;;;;;15.33;14.67;;;;;12.93;69.56;100986.44;5019095;28;45336;-47
2022/10/10 06:21:37;;;;;;;;;14.00;11.67;;;;;12.95;69.18;100983.63;5019200;28;45500;-42
2022/10/10 06:24:02;;;;;;;;;15.33;14.00;;;;;12.97;69.17;100989.66;5019288;28;45403;-42
2022/10/10 06:26:27;;;;;;;;;21.33;12.00;;;;;13.02;69.31;100995.38;5018767;28;45471;-44
2022/10/10 06:28:53;;;;;;;;;15.67;13.00;;;;;13.07;69.29;100995.75;5018868;28;45198;-44
2022/10/10 06:31:18;;;;;;;;;15.33;12.67;;;;;13.14;69.04;100998.59;5018756;28;45300;-43
2022/10/10 06:33:44;;;;;;;;;15.33;12.00;;;;;13.19;69.15;100996.31;5019031;28;45478;-43
2022/10/10 06:36:11;;;;;;;;;17.67;14.67;;;;;13.32;68.74;100999.44;5018695;28;45326;-46
2022/10/10 06:38:41;;;;;;;;;18.00;14.67;;;;;13.39;68.62;101005.81;5018548;28;45209;-50
2022/10/10 06:41:07;;;;;;;;;13.67;12.00;;;;;13.41;68.45;101009.19;5018896;28;45383;-44
2022/10/10 06:43:32;;;;;;;;;12.00;12.00;;;;;13.44;68.34;101013.34;5019119;28;45246;-46
2022/10/10 06:45:58;;;;;;;;;21.33;14.33;;;;;13.45;68.19;101010.53;5018527;28;45479;-44
2022/10/10 06:48:24;;;;;;;;;14.33;12.33;;;;;13.46;68.40;101016.72;5001233;28;45455;-49
2022/10/10 06:51:01;;;;;;;;;16.33;11.00;;;;;13.51;68.27;101013.56;5018908;28;45346;-42
2022/10/10 06:53:27;;;;;;;;;15.00;12.00;;;;;13.56;68.47;101014.75;5018368;28;45496;-43
2022/10/10 06:55:54;;;;;;;;;18.33;15.00;;;;;13.50;68.52;100996.69;5018213;28;46255;-41
2022/10/10 06:58:21;;;;;;;;;14.67;12.67;;;;;13.65;68.09;101020.97;5017912;28;45458;-45
2022/10/10 07:00:54;;;;;;;;;15.67;13.00;;;;;13.82;67.12;101028.09;5017204;28;45309;-41
2022/10/10 07:03:20;;;;;;;;;10.67;10.33;;;;;13.95;67.09;101039.16;5018526;28;45399;-46
2022/10/10 07:05:53;;;;;;;;;14.67;12.33;;;;;14.04;66.91;101042.72;5018254;28;46143;-42
2022/10/10 07:08:19;;;;;;;;;21.67;13.67;;;;;14.16;66.95;101051.28;5018059;28;45348;-42
2022/10/10 07:10:46;;;;;;;;;15.67;11.67;;;;;14.27;66.42;101036.75;5018345;28;45320;-43
2022/10/10 07:13:12;;;;;;;;;12.33;12.33;;;;;14.43;66.06;101044.81;5018100;28;45427;-42
2022/10/10 07:15:37;;;;;;;;;17.33;15.00;;;;;14.48;65.73;101042.47;5018088;28;45491;-45
2022/10/10 07:18:03;;;;;;;;;19.33;17.33;;;;;14.70;65.51;101043.69;5018160;28;45876;-43
2022/10/10 07:20:28;;;;;;;;;15.67;15.33;;;;;14.81;65.17;101050.59;5018089;28;45419;-46
2022/10/10 07:22:53;;;;;;;;;20.67;18.33;;;;;14.90;65.16;101052.25;5018224;28;45443;-42
2022/10/10 07:25:19;;;;;;;;;19.67;14.67;;;;;14.96;64.71;101052.44;5018038;28;46146;-42
2022/10/10 07:27:44;;;;;;;;;14.33;12.00;;;;;15.09;64.73;101056.47;5018106;28;45314;-41
2022/10/10 07:30:10;;;;;;;;;20.00;16.00;;;;;15.18;64.42;101060.78;5018058;28;45431;-43
2022/10/10 07:32:35;;;;;;;;;16.67;15.33;;;;;15.22;64.05;101052.25;5018126;28;45210;-42
2022/10/10 07:35:01;;;;;;;;;15.00;15.00;;;;;15.25;64.13;101048.38;5017902;28;45911;-41
2022/10/10 07:37:26;;;;;;;;;17.67;13.67;;;;;15.32;63.74;101052.06;5017859;28;45365;-46
2022/10/10 07:39:52;;;;;;;;;19.67;16.33;;;;;15.40;63.57;101052.03;5018156;28;45617;-42
2022/10/10 07:42:17;;;;;;;;;20.67;13.67;;;;;15.48;63.41;101045.84;5018298;28;45379;-47
2022/10/10 07:44:43;;;;;;;;;14.00;14.00;;;;;15.51;63.27;101047.34;5017909;28;46101;-49
2022/10/10 07:47:08;;;;;;;;;16.00;13.00;;;;;15.55;63.22;101059.38;5018004;28;45391;-45
2022/10/10 07:49:33;;;;;;;;;16.00;14.00;;;;;15.56;63.02;101064.59;5018530;28;45370;-49
2022/10/10 07:51:59;;;;;;;;;17.00;11.50;;;;;15.56;63.31;101066.44;5018374;28;45318;-43
2022/10/10 07:54:25;;;;;;;;;17.67;15.00;;;;;15.62;63.35;101069.25;5017173;28;45482;-47
2022/10/10 07:56:50;;;;;;;;;13.67;12.00;;;;;15.68;62.70;101071.28;5017750;28;45375;-47
2022/10/10 07:59:16;;;;;;;;;16.67;11.67;;;;;15.74;62.77;101079.66;5017744;28;45350;-49
2022/10/10 08:01:42;;;;;;;;;19.33;15.67;;;;;15.84;62.63;101077.59;4999564;28;45452;-46
2022/10/10 08:04:07;;;;;;;;;18.00;14.00;;;;;15.89;62.47;101070.72;5017554;28;46296;-44
2022/10/10 08:06:32;;;;;;;;;22.33;16.00;;;;;15.98;62.40;101066.16;5017567;28;45496;-45
2022/10/10 08:08:58;;;;;;;;;18.33;15.67;;;;;16.07;61.99;101059.75;5017556;28;45251;-43
2022/10/10 08:11:23;;;;;;;;;15.67;14.33;;;;;16.27;61.69;101073.56;5017329;28;45386;-45
2022/10/10 08:13:50;;;;;;;;;16.33;14.33;;;;;16.38;61.16;101073.16;5016223;28;45305;-49
2022/10/10 08:16:15;;;;;;;;;19.00;14.67;;;;;16.56;60.97;101069.34;5017233;28;45304;-50
2022/10/10 08:18:41;;;;;;;;;17.33;14.33;;;;;16.85;60.31;101071.38;5017477;28;45182;-47
2022/10/10 08:21:09;;;;;;;;;16.00;14.00;;;;;17.12;59.81;101070.81;5017485;28;45313;-42
2022/10/10 08:23:35;;;;;;;;;15.33;15.33;;;;;17.30;58.92;101051.66;5017287;28;47390;-47
2022/10/10 08:26:03;;;;;;;;;18.33;17.00;;;;;17.71;58.38;101076.28;5016983;28;45281;-49
2022/10/10 08:28:29;;;;;;;;;17.67;15.00;;;;;18.80;55.89;101068.31;5017128;28;45271;-49
2022/10/10 08:30:54;;;;;;;;;18.33;17.67;;;;;19.48;54.04;101068.66;5017329;28;45558;-51
2022/10/10 08:33:20;;;;;;;;;21.33;16.00;;;;;20.04;52.38;101078.56;5016876;28;46055;-47
2022/10/10 08:35:45;;;;;;;;;20.00;11.67;;;;;19.83;52.95;101092.97;5017090;28;45352;-51
2022/10/10 08:38:12;;;;;;;;;22.33;17.33;;;;;20.19;52.10;101099.00;5017217;28;45307;-48
2022/10/10 08:40:47;;;;;;;;;17.00;15.00;;;;;20.26;52.43;101085.50;5017227;28;45214;-49
2022/10/10 08:43:37;;;;;;;;;20.33;16.67;;;;;20.21;52.58;101093.38;5016850;28;47010;-50
2022/10/10 08:46:20;;;;;;;;;17.00;13.00;;;;;20.65;51.50;101097.53;5016511;28;45363;-48
2022/10/10 08:48:48;;;;;;;;;15.00;11.67;;;;;20.71;51.18;101096.69;5017019;28;45356;-43
2022/10/10 08:51:25;;;;;;;;;14.00;12.00;;;;;20.74;51.42;101093.59;5017134;28;45734;-46
2022/10/10 08:53:56;;;;;;;;;15.50;11.50;;;;;20.78;51.46;101099.41;5016468;28;45341;-42
2022/10/10 08:56:28;;;;;;;;;13.00;12.67;;;;;20.99;51.65;101112.75;5016787;28;45370;-45
2022/10/10 08:59:19;;;;;;;;;15.50;13.00;;;;;21.23;51.07;101115.88;5016897;28;45381;-43
2022/10/10 09:01:44;;;;;;;;;15.75;11.25;;;;;21.34;50.48;101124.25;5017111;28;45342;-43
2022/10/10 09:04:17;;;;;;;;;13.00;12.50;;;;;21.50;51.02;101128.41;5016549;28;46007;-42
2022/10/10 09:07:19;;;;;;;;;15.25;10.50;;;;;21.63;50.26;101117.56;5016589;28;45494;-41
2022/10/10 09:09:59;;;;;;;;;9.50;9.25;;;;;22.53;49.76;101117.72;5016767;28;45424;-46
2022/10/10 09:12:36;;;;;;;;;10.50;9.00;;;;;24.14;47.15;101119.78;5017030;28;45333;-45
2022/10/10 09:15:17;;;;;;;;;11.75;11.00;;;;;24.63;44.15;101104.28;5016387;28;46279;-48
2022/10/10 09:17:51;;;;;;;;;13.00;9.25;;;;;24.41;45.03;101100.44;5016397;28;45268;-45
2022/10/10 09:20:36;;;;;;;;;17.75;12.75;;;;;24.12;45.18;101108.28;5016690;28;45274;-43
2022/10/10 09:23:07;;;;;;;;;11.75;11.50;;;;;23.86;45.74;101103.16;5018416;28;45375;-42
2022/10/10 09:25:41;;;;;;;;;17.00;15.00;;;;;23.57;45.81;101115.53;5002335;28;47330;-49
2022/10/10 09:28:17;;;;;;;;;18.50;13.75;;;;;23.25;46.48;101123.75;5020138;28;45456;-43
2022/10/10 09:30:53;;;;;;;;;15.00;14.75;;;;;22.83;47.17;101114.41;5020038;28;45384;-48
2022/10/10 09:33:48;;;;;;;;;13.00;12.00;;;;;22.40;48.15;101118.63;5020536;28;45562;-45
2022/10/10 09:36:19;;;;;;;;;12.50;10.75;;;;;22.16;48.92;101131.03;5019839;28;45357;-44
2022/10/10 09:39:26;;;;;;;;;14.00;11.00;;;;;21.67;50.05;101143.19;5019698;28;45448;-47
2022/10/10 09:41:57;;;;;;;;;12.00;11.50;;;;;21.24;50.99;101150.00;4978260;28;45267;-42
2022/10/10 09:44:22;;;;;;;;;13.50;11.75;;;;;20.87;51.78;101155.81;4978264;28;45418;-41
2022/10/10 09:46:48;;;;;;;;;11.50;11.00;;;;;20.48;52.47;101161.03;4961099;28;46148;-42
2022/10/10 09:49:16;;;;;;;;;12.50;11.00;;;;;20.24;53.28;101162.38;4961661;28;45350;-43
2022/10/10 09:51:42;;;;;;;;;12.25;10.00;;;;;19.97;53.65;101164.09;4977900;28;45396;-42
2022/10/10 09:54:08;;;;;;;;;6.75;6.75;;;;;19.76;54.73;101170.38;4977880;28;45426;-42
2022/10/10 09:56:56;;;;;;;;;16.50;13.25;;;;;19.46;54.79;101167.84;4977529;28;47351;-42
2022/10/10 09:59:36;;;;;;;;;9.25;9.25;;;;;19.22;55.78;101181.75;4977685;28;45382;-42
2022/10/10 10:02:11;;;;;;;;;8.00;7.50;;;;;18.87;56.92;101162.72;4977680;28;45207;-42
2022/10/10 10:04:37;;;;;;;;;14.75;9.25;;;;;18.82;57.93;101189.41;4977903;28;45362;-51
2022/10/10 10:07:30;;;;;;;;;11.75;11.75;;;;;18.77;57.59;101186.44;4977598;28;45673;-43
2022/10/10 10:09:57;;;;;;;;;12.25;10.50;;;;;18.82;58.17;101178.63;4976695;28;45523;-42
2022/10/10 10:12:26;;;;;;;;;19.67;12.00;;;;;19.16;57.69;101172.53;4977499;28;45479;-49
2022/10/10 10:14:59;;;;;;;;;18.00;14.00;;;;;19.25;57.10;101176.78;4977435;28;45474;-51
2022/10/10 10:17:24;;;;;;;;;12.00;11.00;;;;;19.07;57.89;101174.53;4977253;28;45441;-48
2022/10/10 10:19:51;;;;;;;;;17.25;13.00;;;;;19.08;57.74;101184.28;4977215;28;45426;-42
2022/10/10 10:22:37;;;;;;;;;13.50;11.75;;;;;19.07;57.74;101174.53;4977405;28;45461;-52
2022/10/10 10:25:27;;;;;;;;;12.00;10.50;;;;;19.14;57.58;101188.94;4977762;28;45468;-54
2022/10/10 10:28:15;;;;;;;;;14.00;11.75;;;;;19.10;57.76;101179.56;4977225;28;47363;-49
2022/10/10 10:30:42;;;;;;;;;20.00;12.00;;;;;19.17;57.98;101199.34;4977192;28;45361;-49
2022/10/10 10:33:34;;;;;;;;;13.75;10.25;;;;;19.19;57.64;101199.97;4977133;28;45333;-51
2022/10/10 10:36:20;;;;;;;;;11.00;11.00;;;;;19.33;57.36;101208.19;4977588;28;45361;-47
2022/10/10 10:38:54;;;;;;;;;10.75;10.75;;;;;19.42;57.50;101201.63;4977367;28;45427;-51
2022/10/10 10:41:31;;;;;;;;;13.50;11.50;;;;;19.53;57.35;101211.91;4977168;28;45394;-50
2022/10/10 10:44:17;;;;;;;;;11.75;11.75;;;;;19.65;57.21;101201.47;4977184;28;45503;-47
2022/10/10 10:46:54;;;;;;;;;18.67;14.00;;;;;19.83;56.74;101209.06;4995254;28;45766;-48
2022/10/10 10:49:27;;;;;;;;;12.50;10.00;;;;;19.98;56.26;101207.13;5018517;28;46100;-48
2022/10/10 10:52:01;;;;;;;;;14.25;13.00;;;;;20.03;55.84;101220.84;5018531;28;45330;-47
2022/10/10 10:54:48;;;;;;;;;20.50;10.75;;;;;20.03;55.73;101223.56;5018374;28;45393;-51
2022/10/10 10:57:45;;;;;;;;;12.75;9.50;;;;;20.04;56.17;101230.63;5019057;28;45226;-52
2022/10/10 11:00:17;;;;;;;;;15.75;11.25;;;;;20.13;55.65;101229.44;5004251;28;45920;-44
2022/10/10 11:03:07;;;;;;;;;10.50;8.50;;;;;20.24;55.80;101236.16;5018337;28;45438;-50
2022/10/10 11:05:42;;;;;;;;;13.50;11.25;;;;;20.36;55.47;101239.97;5018542;28;45304;-50
2022/10/10 11:08:30;;;;;;;;;19.75;12.75;;;;;20.52;55.11;101238.00;5018937;28;45392;-51
2022/10/10 11:11:31;;;;;;;;;12.00;10.75;;;;;20.75;54.76;101233.13;5000468;28;46012;-51
2022/10/10 11:14:11;;;;;;;;;13.00;9.75;;;;;21.03;54.15;101241.16;5018399;28;45383;-48
2022/10/10 11:16:49;;;;;;;;;16.00;12.75;;;;;21.28;53.60;101243.25;5018256;28;45447;-43
2022/10/10 11:19:23;;;;;;;;;17.25;13.25;;;;;21.52;52.78;101241.88;5018347;28;45245;-52
2022/10/10 11:21:53;;;;;;;;;12.75;9.50;;;;;21.73;52.53;101235.44;5017968;28;47363;-49